sensor_id;sensor_type;location;lat;lon;timestamp;P1;durP1;ratioP1;P2;durP2;ratioP2
8825;SDS011;4449;50.872;4.714;2023-12-29T00:03:45;7.97;;;2.90;;
8825;SDS011;4449;50.872;4.714;2023-12-29T00:06:13;7.90;;;3.00;;
8825;SDS011;4449;50.872;4.714;2023-12-29T00:08:41;6.07;;;2.40;;
8825;SDS011;4449;50.872;4.714;2023-12-29T00:11:15;5.82;;;2.50;;
8825;SDS011;4449;50.872;4.714;2023-12-29T00:13:43;7.95;;;3.03;;
8825;SDS011;4449;50.872;4.714;2023-12-29T00:16:11;8.30;;;2.60;;
8825;SDS011;4449;50.872;4.714;2023-12-29T00:18:39;8.18;;;3.05;;
8825;SDS011;4449;50.872;4.714;2023-12-29T00:21:08;7.90;;;3.13;;
8825;SDS011;4449;50.872;4.714;2023-12-29T00:23:36;8.50;;;3.03;;
8825;SDS011;4449;50.872;4.714;2023-12-29T00:26:04;11.15;;;3.28;;
8825;SDS011;4449;50.872;4.714;2023-12-29T00:28:31;9.32;;;2.78;;
8825;SDS011;4449;50.872;4.714;2023-12-29T00:31:01;6.93;;;2.63;;
8825;SDS011;4449;50.872;4.714;2023-12-29T00:33:30;7.82;;;2.70;;
8825;SDS011;4449;50.872;4.714;2023-12-29T00:35:58;8.02;;;2.75;;
8825;SDS011;4449;50.872;4.714;2023-12-29T00:38:27;6.90;;;2.83;;
8825;SDS011;4449;50.872;4.714;2023-12-29T00:40:55;6.22;;;2.67;;
8825;SDS011;4449;50.872;4.714;2023-12-29T00:43:23;10.07;;;3.38;;
8825;SDS011;4449;50.872;4.714;2023-12-29T00:45:50;6.35;;;3.03;;
8825;SDS011;4449;50.872;4.714;2023-12-29T00:48:18;8.60;;;3.17;;
8825;SDS011;4449;50.872;4.714;2023-12-29T00:50:45;7.78;;;2.72;;
8825;SDS011;4449;50.872;4.714;2023-12-29T00:53:13;8.18;;;2.97;;
8825;SDS011;4449;50.872;4.714;2023-12-29T00:55:42;8.50;;;3.45;;
8825;SDS011;4449;50.872;4.714;2023-12-29T00:58:10;8.65;;;3.25;;
8825;SDS011;4449;50.872;4.714;2023-12-29T01:00:38;8.95;;;3.15;;
8825;SDS011;4449;50.872;4.714;2023-12-29T01:03:06;7.65;;;3.17;;
8825;SDS011;4449;50.872;4.714;2023-12-29T01:05:33;6.70;;;2.65;;
8825;SDS011;4449;50.872;4.714;2023-12-29T01:08:00;7.73;;;2.57;;
8825;SDS011;4449;50.872;4.714;2023-12-29T01:10:28;7.55;;;2.88;;
8825;SDS011;4449;50.872;4.714;2023-12-29T01:12:57;7.55;;;2.83;;
8825;SDS011;4449;50.872;4.714;2023-12-29T01:15:25;8.90;;;3.13;;
8825;SDS011;4449;50.872;4.714;2023-12-29T01:17:53;6.90;;;2.78;;
8825;SDS011;4449;50.872;4.714;2023-12-29T01:20:21;6.30;;;2.60;;
8825;SDS011;4449;50.872;4.714;2023-12-29T01:22:49;8.47;;;3.07;;
8825;SDS011;4449;50.872;4.714;2023-12-29T01:25:17;7.28;;;2.90;;
8825;SDS011;4449;50.872;4.714;2023-12-29T01:27:44;7.40;;;3.10;;
8825;SDS011;4449;50.872;4.714;2023-12-29T01:30:14;7.65;;;2.90;;
8825;SDS011;4449;50.872;4.714;2023-12-29T01:32:41;7.88;;;3.00;;
8825;SDS011;4449;50.872;4.714;2023-12-29T01:35:09;10.30;;;3.00;;
8825;SDS011;4449;50.872;4.714;2023-12-29T01:37:37;7.03;;;2.92;;
8825;SDS011;4449;50.872;4.714;2023-12-29T01:40:05;8.18;;;3.10;;
8825;SDS011;4449;50.872;4.714;2023-12-29T01:42:33;7.75;;;2.60;;
8825;SDS011;4449;50.872;4.714;2023-12-29T01:45:00;8.13;;;2.85;;
8825;SDS011;4449;50.872;4.714;2023-12-29T01:47:29;7.57;;;2.80;;
8825;SDS011;4449;50.872;4.714;2023-12-29T01:49:58;9.27;;;3.10;;
8825;SDS011;4449;50.872;4.714;2023-12-29T01:52:25;7.35;;;2.60;;
8825;SDS011;4449;50.872;4.714;2023-12-29T01:54:53;8.00;;;3.15;;
8825;SDS011;4449;50.872;4.714;2023-12-29T01:57:21;5.37;;;2.40;;
8825;SDS011;4449;50.872;4.714;2023-12-29T01:59:48;7.15;;;3.08;;
8825;SDS011;4449;50.872;4.714;2023-12-29T02:02:16;7.72;;;2.72;;
8825;SDS011;4449;50.872;4.714;2023-12-29T02:04:46;6.22;;;2.72;;
8825;SDS011;4449;50.872;4.714;2023-12-29T02:07:13;9.98;;;2.90;;
8825;SDS011;4449;50.872;4.714;2023-12-29T02:09:41;6.68;;;2.78;;
8825;SDS011;4449;50.872;4.714;2023-12-29T02:12:09;6.60;;;2.90;;
8825;SDS011;4449;50.872;4.714;2023-12-29T02:14:37;6.38;;;2.88;;
8825;SDS011;4449;50.872;4.714;2023-12-29T02:17:07;7.95;;;2.70;;
8825;SDS011;4449;50.872;4.714;2023-12-29T02:19:37;7.18;;;2.90;;
8825;SDS011;4449;50.872;4.714;2023-12-29T02:22:07;5.50;;;2.30;;
8825;SDS011;4449;50.872;4.714;2023-12-29T02:24:35;6.60;;;2.85;;
8825;SDS011;4449;50.872;4.714;2023-12-29T02:27:06;7.63;;;2.57;;
8825;SDS011;4449;50.872;4.714;2023-12-29T02:29:35;7.03;;;2.70;;
8825;SDS011;4449;50.872;4.714;2023-12-29T02:32:04;5.60;;;2.42;;
8825;SDS011;4449;50.872;4.714;2023-12-29T02:34:33;5.57;;;2.42;;
8825;SDS011;4449;50.872;4.714;2023-12-29T02:37:01;6.75;;;2.60;;
8825;SDS011;4449;50.872;4.714;2023-12-29T02:39:29;5.82;;;2.42;;
8825;SDS011;4449;50.872;4.714;2023-12-29T02:41:57;6.32;;;2.90;;
8825;SDS011;4449;50.872;4.714;2023-12-29T02:44:26;9.18;;;3.33;;
8825;SDS011;4449;50.872;4.714;2023-12-29T02:46:54;5.07;;;2.60;;
8825;SDS011;4449;50.872;4.714;2023-12-29T02:49:22;8.30;;;2.80;;
8825;SDS011;4449;50.872;4.714;2023-12-29T02:51:49;7.40;;;3.13;;
8825;SDS011;4449;50.872;4.714;2023-12-29T02:54:17;9.85;;;2.90;;
8825;SDS011;4449;50.872;4.714;2023-12-29T02:56:45;7.35;;;3.35;;
8825;SDS011;4449;50.872;4.714;2023-12-29T02:59:12;7.75;;;2.50;;
8825;SDS011;4449;50.872;4.714;2023-12-29T03:01:42;7.28;;;2.78;;
8825;SDS011;4449;50.872;4.714;2023-12-29T03:04:09;7.35;;;2.90;;
8825;SDS011;4449;50.872;4.714;2023-12-29T03:06:38;9.65;;;2.90;;
8825;SDS011;4449;50.872;4.714;2023-12-29T03:09:07;6.22;;;2.53;;
8825;SDS011;4449;50.872;4.714;2023-12-29T03:11:35;6.55;;;2.50;;
8825;SDS011;4449;50.872;4.714;2023-12-29T03:14:03;5.93;;;2.50;;
8825;SDS011;4449;50.872;4.714;2023-12-29T03:16:30;7.47;;;2.50;;
8825;SDS011;4449;50.872;4.714;2023-12-29T03:18:59;6.90;;;2.22;;
8825;SDS011;4449;50.872;4.714;2023-12-29T03:21:27;8.48;;;2.60;;
8825;SDS011;4449;50.872;4.714;2023-12-29T03:23:55;6.13;;;2.53;;
8825;SDS011;4449;50.872;4.714;2023-12-29T03:26:23;8.65;;;3.22;;
8825;SDS011;4449;50.872;4.714;2023-12-29T03:28:50;7.68;;;2.88;;
8825;SDS011;4449;50.872;4.714;2023-12-29T03:31:18;8.77;;;2.42;;
8825;SDS011;4449;50.872;4.714;2023-12-29T03:33:46;5.10;;;2.50;;
8825;SDS011;4449;50.872;4.714;2023-12-29T03:36:15;5.65;;;2.65;;
8825;SDS011;4449;50.872;4.714;2023-12-29T03:38:43;7.38;;;2.67;;
8825;SDS011;4449;50.872;4.714;2023-12-29T03:41:11;7.57;;;2.67;;
8825;SDS011;4449;50.872;4.714;2023-12-29T03:43:38;7.72;;;2.80;;
8825;SDS011;4449;50.872;4.714;2023-12-29T03:46:14;5.78;;;2.58;;
8825;SDS011;4449;50.872;4.714;2023-12-29T03:48:43;5.53;;;2.33;;
8825;SDS011;4449;50.872;4.714;2023-12-29T03:51:10;7.90;;;2.60;;
8825;SDS011;4449;50.872;4.714;2023-12-29T03:53:39;6.43;;;2.60;;
8825;SDS011;4449;50.872;4.714;2023-12-29T03:56:07;7.30;;;2.67;;
8825;SDS011;4449;50.872;4.714;2023-12-29T03:58:35;10.82;;;2.70;;
8825;SDS011;4449;50.872;4.714;2023-12-29T04:01:03;6.90;;;2.60;;
8825;SDS011;4449;50.872;4.714;2023-12-29T04:03:30;7.57;;;2.88;;
8825;SDS011;4449;50.872;4.714;2023-12-29T04:05:58;8.93;;;2.80;;
8825;SDS011;4449;50.872;4.714;2023-12-29T04:08:26;8.25;;;2.58;;
8825;SDS011;4449;50.872;4.714;2023-12-29T04:10:55;5.18;;;2.38;;
8825;SDS011;4449;50.872;4.714;2023-12-29T04:13:23;7.20;;;2.50;;
8825;SDS011;4449;50.872;4.714;2023-12-29T04:15:51;9.48;;;2.72;;
8825;SDS011;4449;50.872;4.714;2023-12-29T04:18:20;7.05;;;2.85;;
8825;SDS011;4449;50.872;4.714;2023-12-29T04:20:48;8.20;;;3.00;;
8825;SDS011;4449;50.872;4.714;2023-12-29T04:23:15;7.97;;;2.72;;
8825;SDS011;4449;50.872;4.714;2023-12-29T04:25:43;10.45;;;2.40;;
8825;SDS011;4449;50.872;4.714;2023-12-29T04:28:13;6.18;;;2.42;;
8825;SDS011;4449;50.872;4.714;2023-12-29T04:30:40;8.30;;;3.00;;
8825;SDS011;4449;50.872;4.714;2023-12-29T04:33:08;7.05;;;2.40;;
8825;SDS011;4449;50.872;4.714;2023-12-29T04:35:36;6.03;;;2.53;;
8825;SDS011;4449;50.872;4.714;2023-12-29T04:38:04;7.60;;;2.70;;
8825;SDS011;4449;50.872;4.714;2023-12-29T04:40:32;9.00;;;3.03;;
8825;SDS011;4449;50.872;4.714;2023-12-29T04:43:00;8.32;;;2.80;;
8825;SDS011;4449;50.872;4.714;2023-12-29T04:45:29;8.27;;;2.70;;
8825;SDS011;4449;50.872;4.714;2023-12-29T04:47:57;8.05;;;2.85;;
8825;SDS011;4449;50.872;4.714;2023-12-29T04:50:24;7.50;;;2.87;;
8825;SDS011;4449;50.872;4.714;2023-12-29T04:52:52;8.88;;;2.60;;
8825;SDS011;4449;50.872;4.714;2023-12-29T04:55:20;8.43;;;2.70;;
8825;SDS011;4449;50.872;4.714;2023-12-29T04:57:48;8.15;;;3.17;;
8825;SDS011;4449;50.872;4.714;2023-12-29T05:00:16;8.60;;;2.67;;
8825;SDS011;4449;50.872;4.714;2023-12-29T05:02:45;6.60;;;2.53;;
8825;SDS011;4449;50.872;4.714;2023-12-29T05:05:13;7.78;;;2.50;;
8825;SDS011;4449;50.872;4.714;2023-12-29T05:07:41;6.63;;;2.55;;
8825;SDS011;4449;50.872;4.714;2023-12-29T05:10:08;7.60;;;2.60;;
8825;SDS011;4449;50.872;4.714;2023-12-29T05:12:36;5.70;;;2.63;;
8825;SDS011;4449;50.872;4.714;2023-12-29T05:15:04;8.45;;;2.50;;
8825;SDS011;4449;50.872;4.714;2023-12-29T05:17:33;7.72;;;2.95;;
8825;SDS011;4449;50.872;4.714;2023-12-29T05:20:03;7.22;;;2.95;;
8825;SDS011;4449;50.872;4.714;2023-12-29T05:22:30;5.43;;;2.55;;
8825;SDS011;4449;50.872;4.714;2023-12-29T05:25:00;8.63;;;3.00;;
8825;SDS011;4449;50.872;4.714;2023-12-29T05:27:28;9.50;;;2.80;;
8825;SDS011;4449;50.872;4.714;2023-12-29T05:29:57;8.95;;;2.67;;
8825;SDS011;4449;50.872;4.714;2023-12-29T05:32:24;8.32;;;2.70;;
8825;SDS011;4449;50.872;4.714;2023-12-29T05:34:52;5.93;;;2.78;;
8825;SDS011;4449;50.872;4.714;2023-12-29T05:37:21;7.13;;;2.70;;
8825;SDS011;4449;50.872;4.714;2023-12-29T05:39:49;11.23;;;3.10;;
8825;SDS011;4449;50.872;4.714;2023-12-29T05:42:17;6.97;;;2.97;;
8825;SDS011;4449;50.872;4.714;2023-12-29T05:44:44;7.95;;;3.00;;
8825;SDS011;4449;50.872;4.714;2023-12-29T05:47:12;8.18;;;3.42;;
8825;SDS011;4449;50.872;4.714;2023-12-29T05:49:40;7.70;;;3.03;;
8825;SDS011;4449;50.872;4.714;2023-12-29T05:52:08;7.43;;;3.15;;
8825;SDS011;4449;50.872;4.714;2023-12-29T05:54:37;10.63;;;3.20;;
8825;SDS011;4449;50.872;4.714;2023-12-29T05:57:11;6.37;;;2.80;;
8825;SDS011;4449;50.872;4.714;2023-12-29T05:59:38;8.45;;;2.92;;
8825;SDS011;4449;50.872;4.714;2023-12-29T06:02:07;6.38;;;2.78;;
8825;SDS011;4449;50.872;4.714;2023-12-29T06:04:35;9.73;;;3.00;;
8825;SDS011;4449;50.872;4.714;2023-12-29T06:07:03;8.23;;;2.40;;
8825;SDS011;4449;50.872;4.714;2023-12-29T06:09:30;8.25;;;2.90;;
8825;SDS011;4449;50.872;4.714;2023-12-29T06:12:00;9.23;;;2.73;;
8825;SDS011;4449;50.872;4.714;2023-12-29T06:14:27;7.03;;;2.78;;
8825;SDS011;4449;50.872;4.714;2023-12-29T06:16:55;8.45;;;2.85;;
8825;SDS011;4449;50.872;4.714;2023-12-29T06:19:23;10.55;;;3.67;;
8825;SDS011;4449;50.872;4.714;2023-12-29T06:21:51;11.77;;;3.25;;
8825;SDS011;4449;50.872;4.714;2023-12-29T06:24:18;10.40;;;3.35;;
8825;SDS011;4449;50.872;4.714;2023-12-29T06:26:47;11.80;;;3.50;;
8825;SDS011;4449;50.872;4.714;2023-12-29T06:29:16;11.05;;;3.25;;
8825;SDS011;4449;50.872;4.714;2023-12-29T06:31:44;12.70;;;3.97;;
8825;SDS011;4449;50.872;4.714;2023-12-29T06:34:12;9.93;;;3.10;;
8825;SDS011;4449;50.872;4.714;2023-12-29T06:36:39;7.87;;;2.80;;
8825;SDS011;4449;50.872;4.714;2023-12-29T06:39:07;8.25;;;2.90;;
8825;SDS011;4449;50.872;4.714;2023-12-29T06:41:35;10.25;;;2.97;;
8825;SDS011;4449;50.872;4.714;2023-12-29T06:44:03;10.98;;;3.30;;
8825;SDS011;4449;50.872;4.714;2023-12-29T06:46:31;8.52;;;2.60;;
8825;SDS011;4449;50.872;4.714;2023-12-29T06:48:59;7.72;;;2.92;;
8825;SDS011;4449;50.872;4.714;2023-12-29T06:51:27;10.88;;;3.35;;
8825;SDS011;4449;50.872;4.714;2023-12-29T06:53:54;7.13;;;2.92;;
8825;SDS011;4449;50.872;4.714;2023-12-29T06:56:22;8.07;;;2.85;;
8825;SDS011;4449;50.872;4.714;2023-12-29T06:58:50;11.45;;;3.72;;
8825;SDS011;4449;50.872;4.714;2023-12-29T07:01:18;8.98;;;2.80;;
8825;SDS011;4449;50.872;4.714;2023-12-29T07:03:47;7.72;;;2.78;;
8825;SDS011;4449;50.872;4.714;2023-12-29T07:06:15;9.55;;;2.83;;
8825;SDS011;4449;50.872;4.714;2023-12-29T07:08:43;6.45;;;2.67;;
8825;SDS011;4449;50.872;4.714;2023-12-29T07:11:12;7.33;;;2.80;;
8825;SDS011;4449;50.872;4.714;2023-12-29T07:13:39;12.00;;;2.90;;
8825;SDS011;4449;50.872;4.714;2023-12-29T07:16:07;8.68;;;2.80;;
8825;SDS011;4449;50.872;4.714;2023-12-29T07:18:35;6.28;;;2.80;;
8825;SDS011;4449;50.872;4.714;2023-12-29T07:21:05;6.53;;;2.50;;
8825;SDS011;4449;50.872;4.714;2023-12-29T07:23:32;6.82;;;2.67;;
8825;SDS011;4449;50.872;4.714;2023-12-29T07:26:00;7.83;;;2.57;;
8825;SDS011;4449;50.872;4.714;2023-12-29T07:28:28;6.70;;;2.50;;
8825;SDS011;4449;50.872;4.714;2023-12-29T07:30:56;7.53;;;2.80;;
8825;SDS011;4449;50.872;4.714;2023-12-29T07:33:23;7.93;;;2.75;;
8825;SDS011;4449;50.872;4.714;2023-12-29T07:35:51;7.47;;;3.20;;
8825;SDS011;4449;50.872;4.714;2023-12-29T07:38:21;6.85;;;2.88;;
8825;SDS011;4449;50.872;4.714;2023-12-29T07:40:48;6.45;;;2.70;;
8825;SDS011;4449;50.872;4.714;2023-12-29T07:43:16;6.15;;;2.70;;
8825;SDS011;4449;50.872;4.714;2023-12-29T07:45:44;9.73;;;2.65;;
8825;SDS011;4449;50.872;4.714;2023-12-29T07:48:11;8.07;;;2.97;;
8825;SDS011;4449;50.872;4.714;2023-12-29T07:50:39;9.17;;;3.30;;
8825;SDS011;4449;50.872;4.714;2023-12-29T07:53:06;7.32;;;2.70;;
8825;SDS011;4449;50.872;4.714;2023-12-29T07:55:38;9.10;;;2.92;;
8825;SDS011;4449;50.872;4.714;2023-12-29T07:58:06;7.27;;;2.50;;
8825;SDS011;4449;50.872;4.714;2023-12-29T08:00:35;8.20;;;3.33;;
8825;SDS011;4449;50.872;4.714;2023-12-29T08:03:04;6.97;;;2.72;;
8825;SDS011;4449;50.872;4.714;2023-12-29T08:05:32;7.75;;;2.83;;
8825;SDS011;4449;50.872;4.714;2023-12-29T08:08:00;9.80;;;3.85;;
8825;SDS011;4449;50.872;4.714;2023-12-29T08:10:28;7.57;;;2.38;;
8825;SDS011;4449;50.872;4.714;2023-12-29T08:12:58;9.48;;;2.80;;
8825;SDS011;4449;50.872;4.714;2023-12-29T08:15:26;7.20;;;2.53;;
8825;SDS011;4449;50.872;4.714;2023-12-29T08:17:53;5.85;;;2.58;;
8825;SDS011;4449;50.872;4.714;2023-12-29T08:20:21;6.97;;;2.58;;
8825;SDS011;4449;50.872;4.714;2023-12-29T08:22:49;7.55;;;2.40;;
8825;SDS011;4449;50.872;4.714;2023-12-29T08:25:17;5.17;;;2.27;;
8825;SDS011;4449;50.872;4.714;2023-12-29T08:27:45;5.20;;;2.10;;
8825;SDS011;4449;50.872;4.714;2023-12-29T08:30:14;4.88;;;2.70;;
8825;SDS011;4449;50.872;4.714;2023-12-29T08:32:42;8.60;;;2.97;;
8825;SDS011;4449;50.872;4.714;2023-12-29T08:35:10;6.87;;;2.60;;
8825;SDS011;4449;50.872;4.714;2023-12-29T08:37:37;5.70;;;2.50;;
8825;SDS011;4449;50.872;4.714;2023-12-29T08:40:05;6.13;;;2.47;;
8825;SDS011;4449;50.872;4.714;2023-12-29T08:42:33;4.90;;;2.60;;
8825;SDS011;4449;50.872;4.714;2023-12-29T08:45:01;9.27;;;2.72;;
8825;SDS011;4449;50.872;4.714;2023-12-29T08:47:31;8.95;;;2.67;;
8825;SDS011;4449;50.872;4.714;2023-12-29T08:49:59;8.27;;;2.65;;
8825;SDS011;4449;50.872;4.714;2023-12-29T08:52:27;6.37;;;2.33;;
8825;SDS011;4449;50.872;4.714;2023-12-29T08:54:55;7.93;;;2.75;;
8825;SDS011;4449;50.872;4.714;2023-12-29T08:57:22;7.38;;;2.75;;
8825;SDS011;4449;50.872;4.714;2023-12-29T08:59:49;8.48;;;2.83;;
8825;SDS011;4449;50.872;4.714;2023-12-29T09:02:17;6.03;;;2.70;;
8825;SDS011;4449;50.872;4.714;2023-12-29T09:04:46;8.10;;;3.13;;
8825;SDS011;4449;50.872;4.714;2023-12-29T09:07:14;7.13;;;2.70;;
8825;SDS011;4449;50.872;4.714;2023-12-29T09:09:41;6.60;;;2.65;;
8825;SDS011;4449;50.872;4.714;2023-12-29T09:12:09;5.47;;;2.60;;
8825;SDS011;4449;50.872;4.714;2023-12-29T09:14:37;6.80;;;2.57;;
8825;SDS011;4449;50.872;4.714;2023-12-29T09:17:05;6.55;;;3.10;;
8825;SDS011;4449;50.872;4.714;2023-12-29T09:19:32;5.95;;;2.92;;
8825;SDS011;4449;50.872;4.714;2023-12-29T09:34:49;6.80;;;2.65;;
8825;SDS011;4449;50.872;4.714;2023-12-29T09:37:17;7.60;;;2.70;;
8825;SDS011;4449;50.872;4.714;2023-12-29T09:39:44;6.65;;;2.70;;
8825;SDS011;4449;50.872;4.714;2023-12-29T09:42:13;8.90;;;2.60;;
8825;SDS011;4449;50.872;4.714;2023-12-29T09:44:45;7.05;;;2.40;;
8825;SDS011;4449;50.872;4.714;2023-12-29T09:47:15;5.03;;;2.50;;
8825;SDS011;4449;50.872;4.714;2023-12-29T09:49:44;7.00;;;2.83;;
8825;SDS011;4449;50.872;4.714;2023-12-29T09:52:14;6.03;;;2.53;;
8825;SDS011;4449;50.872;4.714;2023-12-29T09:54:43;6.03;;;2.65;;
8825;SDS011;4449;50.872;4.714;2023-12-29T09:57:11;9.02;;;2.92;;
8825;SDS011;4449;50.872;4.714;2023-12-29T09:59:40;7.40;;;2.87;;
8825;SDS011;4449;50.872;4.714;2023-12-29T10:02:11;6.68;;;2.88;;
8825;SDS011;4449;50.872;4.714;2023-12-29T10:04:39;7.32;;;2.38;;
8825;SDS011;4449;50.872;4.714;2023-12-29T10:07:06;9.07;;;2.65;;
8825;SDS011;4449;50.872;4.714;2023-12-29T10:09:36;6.70;;;2.53;;
8825;SDS011;4449;50.872;4.714;2023-12-29T10:12:05;6.60;;;2.27;;
8825;SDS011;4449;50.872;4.714;2023-12-29T10:14:37;5.40;;;2.22;;
8825;SDS011;4449;50.872;4.714;2023-12-29T10:17:09;5.65;;;2.22;;
8825;SDS011;4449;50.872;4.714;2023-12-29T10:19:40;5.97;;;2.38;;
8825;SDS011;4449;50.872;4.714;2023-12-29T10:22:11;4.88;;;2.45;;
8825;SDS011;4449;50.872;4.714;2023-12-29T10:24:42;5.45;;;2.35;;
8825;SDS011;4449;50.872;4.714;2023-12-29T10:27:11;3.95;;;2.17;;
8825;SDS011;4449;50.872;4.714;2023-12-29T10:29:39;5.85;;;2.25;;
8825;SDS011;4449;50.872;4.714;2023-12-29T10:32:07;5.95;;;2.50;;
8825;SDS011;4449;50.872;4.714;2023-12-29T10:34:35;6.30;;;2.65;;
8825;SDS011;4449;50.872;4.714;2023-12-29T10:37:02;7.78;;;2.67;;
8825;SDS011;4449;50.872;4.714;2023-12-29T10:39:34;5.78;;;2.40;;
8825;SDS011;4449;50.872;4.714;2023-12-29T10:42:04;5.20;;;2.67;;
8825;SDS011;4449;50.872;4.714;2023-12-29T10:44:33;6.50;;;2.43;;
8825;SDS011;4449;50.872;4.714;2023-12-29T10:47:07;8.32;;;2.80;;
8825;SDS011;4449;50.872;4.714;2023-12-29T10:49:36;6.57;;;2.40;;
8825;SDS011;4449;50.872;4.714;2023-12-29T10:52:10;6.32;;;2.58;;
8825;SDS011;4449;50.872;4.714;2023-12-29T10:54:40;5.72;;;2.67;;
8825;SDS011;4449;50.872;4.714;2023-12-29T10:57:09;5.22;;;2.30;;
8825;SDS011;4449;50.872;4.714;2023-12-29T10:59:37;5.45;;;2.55;;
8825;SDS011;4449;50.872;4.714;2023-12-29T11:02:05;6.93;;;2.35;;
8825;SDS011;4449;50.872;4.714;2023-12-29T11:04:33;4.60;;;2.38;;
8825;SDS011;4449;50.872;4.714;2023-12-29T11:07:01;4.47;;;2.00;;
8825;SDS011;4449;50.872;4.714;2023-12-29T11:09:29;7.15;;;2.28;;
8825;SDS011;4449;50.872;4.714;2023-12-29T11:11:59;7.57;;;2.20;;
8825;SDS011;4449;50.872;4.714;2023-12-29T11:14:29;7.18;;;2.42;;
8825;SDS011;4449;50.872;4.714;2023-12-29T11:16:57;3.60;;;2.08;;
8825;SDS011;4449;50.872;4.714;2023-12-29T11:19:25;3.70;;;2.10;;
8825;SDS011;4449;50.872;4.714;2023-12-29T12:20:06;4.70;;;2.30;;
8825;SDS011;4449;50.872;4.714;2023-12-29T12:22:35;3.63;;;2.28;;
8825;SDS011;4449;50.872;4.714;2023-12-29T12:25:03;7.30;;;2.30;;
8825;SDS011;4449;50.872;4.714;2023-12-29T12:27:32;2.90;;;2.10;;
8825;SDS011;4449;50.872;4.714;2023-12-29T12:30:00;3.65;;;1.90;;
8825;SDS011;4449;50.872;4.714;2023-12-29T12:32:28;4.18;;;1.70;;
8825;SDS011;4449;50.872;4.714;2023-12-29T12:34:55;3.00;;;1.90;;
8825;SDS011;4449;50.872;4.714;2023-12-29T12:37:25;3.92;;;2.00;;
8825;SDS011;4449;50.872;4.714;2023-12-29T12:39:52;4.63;;;2.13;;
8825;SDS011;4449;50.872;4.714;2023-12-29T12:42:21;4.07;;;2.10;;
8825;SDS011;4449;50.872;4.714;2023-12-29T12:44:55;6.57;;;2.47;;
8825;SDS011;4449;50.872;4.714;2023-12-29T12:47:25;3.33;;;2.40;;
8825;SDS011;4449;50.872;4.714;2023-12-29T12:49:54;4.60;;;2.55;;
8825;SDS011;4449;50.872;4.714;2023-12-29T12:52:21;6.50;;;3.10;;
8825;SDS011;4449;50.872;4.714;2023-12-29T12:54:51;6.72;;;2.67;;
8825;SDS011;4449;50.872;4.714;2023-12-29T12:57:20;3.88;;;2.33;;
8825;SDS011;4449;50.872;4.714;2023-12-29T12:59:48;4.03;;;2.30;;
8825;SDS011;4449;50.872;4.714;2023-12-29T13:02:16;5.63;;;2.33;;
8825;SDS011;4449;50.872;4.714;2023-12-29T13:04:45;4.72;;;2.58;;
8825;SDS011;4449;50.872;4.714;2023-12-29T13:07:14;6.67;;;2.40;;
8825;SDS011;4449;50.872;4.714;2023-12-29T13:09:43;4.90;;;2.30;;
8825;SDS011;4449;50.872;4.714;2023-12-29T13:12:13;4.47;;;2.40;;
8825;SDS011;4449;50.872;4.714;2023-12-29T13:14:41;3.85;;;2.13;;
8825;SDS011;4449;50.872;4.714;2023-12-29T13:17:09;3.45;;;2.20;;
8825;SDS011;4449;50.872;4.714;2023-12-29T13:19:37;4.20;;;2.28;;
8825;SDS011;4449;50.872;4.714;2023-12-29T13:22:06;4.65;;;2.15;;
8825;SDS011;4449;50.872;4.714;2023-12-29T13:24:35;4.50;;;2.10;;
8825;SDS011;4449;50.872;4.714;2023-12-29T13:27:04;2.95;;;1.95;;
8825;SDS011;4449;50.872;4.714;2023-12-29T13:29:34;4.18;;;1.90;;
8825;SDS011;4449;50.872;4.714;2023-12-29T13:32:03;3.47;;;1.80;;
8825;SDS011;4449;50.872;4.714;2023-12-29T13:34:34;4.40;;;2.28;;
8825;SDS011;4449;50.872;4.714;2023-12-29T13:37:05;3.90;;;2.20;;
8825;SDS011;4449;50.872;4.714;2023-12-29T13:39:35;4.22;;;2.10;;
8825;SDS011;4449;50.872;4.714;2023-12-29T13:42:04;4.30;;;2.20;;
8825;SDS011;4449;50.872;4.714;2023-12-29T13:44:34;3.38;;;2.30;;
8825;SDS011;4449;50.872;4.714;2023-12-29T13:47:02;3.92;;;2.10;;
8825;SDS011;4449;50.872;4.714;2023-12-29T13:49:30;3.43;;;2.00;;
8825;SDS011;4449;50.872;4.714;2023-12-29T13:52:02;4.07;;;2.60;;
8825;SDS011;4449;50.872;4.714;2023-12-29T13:54:30;3.67;;;2.38;;
8825;SDS011;4449;50.872;4.714;2023-12-29T13:56:58;3.22;;;2.30;;
8825;SDS011;4449;50.872;4.714;2023-12-29T13:59:29;3.45;;;2.45;;
8825;SDS011;4449;50.872;4.714;2023-12-29T14:02:02;3.47;;;2.35;;
8825;SDS011;4449;50.872;4.714;2023-12-29T14:04:30;2.88;;;2.22;;
8825;SDS011;4449;50.872;4.714;2023-12-29T14:06:59;2.17;;;2.00;;
8825;SDS011;4449;50.872;4.714;2023-12-29T14:09:28;3.83;;;2.30;;
8825;SDS011;4449;50.872;4.714;2023-12-29T14:11:56;2.72;;;2.00;;
8825;SDS011;4449;50.872;4.714;2023-12-29T14:14:24;2.40;;;2.20;;
8825;SDS011;4449;50.872;4.714;2023-12-29T14:16:52;2.92;;;1.90;;
8825;SDS011;4449;50.872;4.714;2023-12-29T14:19:21;5.80;;;2.88;;
8825;SDS011;4449;50.872;4.714;2023-12-29T14:21:49;3.70;;;2.20;;
8825;SDS011;4449;50.872;4.714;2023-12-29T14:24:18;3.00;;;2.20;;
8825;SDS011;4449;50.872;4.714;2023-12-29T14:26:55;3.40;;;2.40;;
8825;SDS011;4449;50.872;4.714;2023-12-29T14:29:22;4.78;;;2.40;;
8825;SDS011;4449;50.872;4.714;2023-12-29T14:31:52;3.42;;;2.55;;
8825;SDS011;4449;50.872;4.714;2023-12-29T14:34:22;3.75;;;3.05;;
8825;SDS011;4449;50.872;4.714;2023-12-29T14:36:50;4.47;;;2.60;;
8825;SDS011;4449;50.872;4.714;2023-12-29T14:39:18;4.22;;;2.78;;
8825;SDS011;4449;50.872;4.714;2023-12-29T14:41:45;3.08;;;2.75;;
8825;SDS011;4449;50.872;4.714;2023-12-29T14:44:13;4.47;;;2.58;;
8825;SDS011;4449;50.872;4.714;2023-12-29T14:46:41;2.83;;;2.63;;
8825;SDS011;4449;50.872;4.714;2023-12-29T14:49:09;4.05;;;3.17;;
8825;SDS011;4449;50.872;4.714;2023-12-29T14:51:38;4.30;;;2.90;;
8825;SDS011;4449;50.872;4.714;2023-12-29T14:54:06;5.15;;;3.70;;
8825;SDS011;4449;50.872;4.714;2023-12-29T14:56:34;6.05;;;3.15;;
8825;SDS011;4449;50.872;4.714;2023-12-29T14:59:02;3.45;;;2.50;;
8825;SDS011;4449;50.872;4.714;2023-12-29T15:01:29;4.25;;;2.47;;
8825;SDS011;4449;50.872;4.714;2023-12-29T15:03:57;5.40;;;2.55;;
8825;SDS011;4449;50.872;4.714;2023-12-29T15:06:25;4.15;;;2.53;;
8825;SDS011;4449;50.872;4.714;2023-12-29T15:08:54;4.35;;;3.00;;
8825;SDS011;4449;50.872;4.714;2023-12-29T15:11:22;5.32;;;2.35;;
8825;SDS011;4449;50.872;4.714;2023-12-29T15:13:50;6.35;;;2.33;;
8825;SDS011;4449;50.872;4.714;2023-12-29T15:16:17;6.75;;;2.72;;
8825;SDS011;4449;50.872;4.714;2023-12-29T15:18:45;5.03;;;2.30;;
8825;SDS011;4449;50.872;4.714;2023-12-29T15:21:13;7.22;;;2.35;;
8825;SDS011;4449;50.872;4.714;2023-12-29T15:23:40;4.30;;;2.20;;
8825;SDS011;4449;50.872;4.714;2023-12-29T15:26:09;6.15;;;2.40;;
8825;SDS011;4449;50.872;4.714;2023-12-29T15:28:40;5.63;;;2.40;;
8825;SDS011;4449;50.872;4.714;2023-12-29T15:31:09;2.92;;;2.10;;
8825;SDS011;4449;50.872;4.714;2023-12-29T15:33:38;4.47;;;2.40;;
8825;SDS011;4449;50.872;4.714;2023-12-29T15:50:28;5.22;;;2.17;;
8825;SDS011;4449;50.872;4.714;2023-12-29T15:52:56;3.17;;;1.90;;
8825;SDS011;4449;50.872;4.714;2023-12-29T15:55:24;5.15;;;2.55;;
8825;SDS011;4449;50.872;4.714;2023-12-29T15:57:51;4.43;;;1.90;;
8825;SDS011;4449;50.872;4.714;2023-12-29T16:00:19;7.07;;;2.00;;
8825;SDS011;4449;50.872;4.714;2023-12-29T16:02:48;3.42;;;1.83;;
8825;SDS011;4449;50.872;4.714;2023-12-29T16:05:15;4.43;;;2.15;;
8825;SDS011;4449;50.872;4.714;2023-12-29T16:07:44;4.17;;;2.30;;
8825;SDS011;4449;50.872;4.714;2023-12-29T16:10:12;3.72;;;2.17;;
8825;SDS011;4449;50.872;4.714;2023-12-29T16:12:40;9.23;;;5.88;;
8825;SDS011;4449;50.872;4.714;2023-12-29T16:15:08;7.03;;;3.53;;
8825;SDS011;4449;50.872;4.714;2023-12-29T16:17:36;3.88;;;2.03;;
8825;SDS011;4449;50.872;4.714;2023-12-29T16:20:04;4.20;;;2.33;;
8825;SDS011;4449;50.872;4.714;2023-12-29T16:22:32;5.82;;;2.50;;
8825;SDS011;4449;50.872;4.714;2023-12-29T16:25:01;4.13;;;2.20;;
8825;SDS011;4449;50.872;4.714;2023-12-29T16:27:29;4.65;;;2.05;;
8825;SDS011;4449;50.872;4.714;2023-12-29T16:29:57;5.90;;;2.30;;
8825;SDS011;4449;50.872;4.714;2023-12-29T16:32:25;5.20;;;2.30;;
8825;SDS011;4449;50.872;4.714;2023-12-29T16:34:58;5.35;;;2.15;;
8825;SDS011;4449;50.872;4.714;2023-12-29T16:37:26;5.45;;;2.20;;
8825;SDS011;4449;50.872;4.714;2023-12-29T16:39:55;5.38;;;2.10;;
8825;SDS011;4449;50.872;4.714;2023-12-29T16:42:23;3.03;;;1.83;;
8825;SDS011;4449;50.872;4.714;2023-12-29T16:44:51;4.40;;;2.45;;
8825;SDS011;4449;50.872;4.714;2023-12-29T16:47:18;3.67;;;2.10;;
8825;SDS011;4449;50.872;4.714;2023-12-29T16:49:46;4.35;;;2.30;;